createdAt,value
2017-08-15T00:00:36.656Z,17.90
2017-08-15T00:03:04.188Z,17.90
2017-08-15T00:05:31.736Z,17.90
2017-08-15T00:07:59.257Z,17.80
2017-08-15T00:10:27.089Z,17.80
2017-08-15T00:12:54.587Z,17.80
2017-08-15T00:15:22.113Z,17.80
2017-08-15T00:17:49.661Z,17.70
2017-08-15T00:20:17.179Z,17.70
2017-08-15T00:22:45.003Z,17.70
2017-08-15T00:25:12.516Z,17.60
2017-08-15T00:27:40.024Z,17.60
2017-08-15T00:30:07.564Z,17.60
2017-08-15T00:32:35.095Z,17.60
2017-08-15T00:35:03.708Z,17.60
2017-08-15T00:37:31.232Z,17.50
2017-08-15T00:39:58.763Z,17.50
2017-08-15T00:42:26.867Z,17.50
2017-08-15T00:44:55.143Z,17.50
2017-08-15T00:47:23.169Z,17.40
2017-08-15T00:49:50.683Z,17.50
2017-08-15T00:52:18.216Z,17.50
2017-08-15T00:54:45.751Z,17.40
2017-08-15T00:57:13.250Z,17.40
2017-08-15T00:59:41.832Z,17.40
2017-08-15T01:02:10.142Z,17.40
2017-08-15T01:04:37.660Z,17.30
2017-08-15T01:07:05.225Z,17.30
2017-08-15T01:09:33.523Z,17.30
2017-08-15T01:12:01.332Z,17.30
2017-08-15T01:14:28.876Z,17.30
2017-08-15T01:16:56.415Z,17.30
2017-08-15T01:19:23.993Z,17.20
2017-08-15T01:21:51.528Z,17.20
2017-08-15T01:24:19.546Z,17.20
2017-08-15T01:26:47.082Z,17.20
2017-08-15T01:29:14.624Z,17.20
2017-08-15T01:31:42.180Z,17.10
2017-08-15T01:34:09.716Z,17.10
2017-08-15T01:36:37.564Z,17.10
2017-08-15T01:39:05.097Z,17.10
2017-08-15T01:41:32.616Z,17.10
2017-08-15T01:44:00.931Z,17.00
2017-08-15T01:46:28.487Z,17.00
2017-08-15T01:48:56.432Z,17.00
2017-08-15T01:51:24.709Z,17.00
2017-08-15T01:53:52.241Z,17.00
2017-08-15T01:56:19.804Z,17.00
2017-08-15T01:58:47.325Z,17.00
2017-08-15T02:01:15.149Z,17.00
2017-08-15T02:03:43.436Z,16.90
2017-08-15T02:06:10.952Z,16.90
2017-08-15T02:08:38.506Z,16.90
2017-08-15T02:11:06.029Z,16.90
2017-08-15T02:13:33.926Z,16.90
2017-08-15T02:16:01.446Z,16.90
2017-08-15T02:18:28.958Z,16.90
2017-08-15T02:20:56.513Z,16.90
2017-08-15T02:23:24.040Z,16.90
2017-08-15T02:25:51.927Z,16.80
2017-08-15T02:28:19.464Z,16.80
2017-08-15T02:30:46.985Z,16.80
2017-08-15T02:33:14.559Z,16.80
2017-08-15T02:35:42.104Z,16.70
2017-08-15T02:38:09.988Z,16.70
2017-08-15T02:40:38.314Z,16.70
2017-08-15T02:43:05.829Z,16.70
2017-08-15T02:45:34.142Z,16.70
2017-08-15T02:48:01.668Z,16.60
2017-08-15T02:50:29.588Z,16.70
2017-08-15T02:52:57.131Z,16.60
2017-08-15T02:55:24.648Z,16.60
2017-08-15T02:57:52.208Z,16.60
2017-08-15T03:00:20.566Z,16.60
2017-08-15T03:02:48.519Z,16.60
2017-08-15T03:05:16.038Z,16.60
2017-08-15T03:07:44.105Z,16.60
2017-08-15T03:10:11.667Z,16.60
2017-08-15T03:12:39.175Z,16.60
2017-08-15T03:15:07.019Z,16.60
2017-08-15T03:17:34.545Z,16.60
2017-08-15T03:20:02.844Z,16.60
2017-08-15T03:22:30.418Z,16.50
2017-08-15T03:24:57.958Z,16.60
2017-08-15T03:27:25.856Z,16.50
2017-08-15T03:29:53.391Z,16.50
2017-08-15T03:32:20.912Z,16.50
2017-08-15T03:34:48.478Z,16.50
2017-08-15T03:37:16.018Z,16.50
2017-08-15T03:39:43.985Z,16.40
2017-08-15T03:42:11.514Z,16.40
2017-08-15T03:44:39.045Z,16.40
2017-08-15T03:47:06.613Z,16.40
2017-08-15T03:49:34.154Z,16.30
2017-08-15T03:52:02.091Z,16.30
2017-08-15T03:54:29.624Z,16.20
2017-08-15T03:56:57.157Z,16.20
2017-08-15T03:59:24.756Z,16.20
2017-08-15T04:01:52.279Z,16.20
2017-08-15T04:04:20.203Z,16.20
2017-08-15T04:06:47.741Z,16.20
2017-08-15T04:09:15.247Z,16.20
2017-08-15T04:11:43.561Z,16.20
2017-08-15T04:14:11.097Z,16.20
2017-08-15T04:16:50.297Z,16.20
2017-08-15T04:19:18.547Z,16.10
2017-08-15T04:21:46.079Z,16.10
2017-08-15T04:24:13.673Z,16.10
2017-08-15T04:26:41.215Z,16.10
2017-08-15T04:29:09.063Z,16.10
2017-08-15T04:31:36.627Z,16.20
2017-08-15T04:34:04.197Z,16.20
2017-08-15T04:36:31.778Z,16.20
2017-08-15T04:38:59.323Z,16.20
2017-08-15T04:41:27.238Z,16.30
2017-08-15T04:43:54.836Z,16.20
2017-08-15T04:46:22.360Z,16.30
2017-08-15T04:48:49.937Z,16.30
2017-08-15T04:51:18.233Z,16.40
2017-08-15T04:53:46.846Z,16.40
2017-08-15T04:56:20.716Z,16.40
2017-08-15T04:58:48.573Z,16.40
2017-08-15T05:01:16.131Z,16.50
2017-08-15T05:03:43.666Z,16.50
2017-08-15T05:06:11.241Z,16.60
2017-08-15T05:08:38.763Z,16.70
2017-08-15T05:11:07.587Z,16.70
2017-08-15T05:13:35.116Z,16.70
2017-08-15T05:16:02.682Z,16.90
2017-08-15T05:18:30.226Z,16.90
2017-08-15T05:20:57.750Z,17.00
2017-08-15T05:23:26.417Z,17.10
2017-08-15T05:25:53.946Z,17.10
2017-08-15T05:28:21.496Z,17.20
2017-08-15T05:30:49.036Z,17.30
2017-08-15T05:33:16.586Z,17.40
2017-08-15T05:35:44.401Z,17.50
2017-08-15T05:38:11.949Z,17.60
2017-08-15T05:40:39.463Z,17.70
2017-08-15T05:43:07.788Z,17.80
2017-08-15T05:45:36.313Z,17.80
2017-08-15T05:48:04.238Z,17.90
2017-08-15T05:50:32.668Z,18.00
2017-08-15T05:53:00.219Z,18.10
2017-08-15T05:55:27.781Z,18.20
2017-08-15T05:57:55.310Z,18.30
2017-08-15T06:00:23.120Z,18.40
2017-08-15T06:02:51.423Z,18.70
2017-08-15T06:05:18.964Z,18.70
2017-08-15T06:07:46.512Z,18.90
2017-08-15T06:10:14.061Z,19.10
2017-08-15T06:12:41.895Z,19.30
2017-08-15T06:15:24.374Z,19.50
2017-08-15T06:17:53.005Z,19.90
2017-08-15T06:20:20.514Z,20.00
2017-08-15T06:22:48.067Z,20.10
2017-08-15T06:25:15.624Z,20.20
2017-08-15T06:27:43.916Z,20.50
2017-08-15T06:30:11.721Z,20.40
2017-08-15T06:32:39.257Z,20.50
2017-08-15T06:35:06.818Z,20.70
2017-08-15T06:37:34.361Z,20.80
2017-08-15T06:40:02.648Z,21.00
2017-08-15T06:42:30.589Z,21.00
2017-08-15T06:44:58.101Z,21.10
2017-08-15T06:47:25.603Z,21.20
2017-08-15T06:49:53.159Z,21.30
2017-08-15T06:52:20.698Z,21.40
2017-08-15T06:54:48.532Z,21.50
2017-08-15T06:57:16.056Z,21.70
2017-08-15T06:59:43.575Z,21.80
2017-08-15T07:02:11.106Z,21.80
2017-08-15T07:04:38.617Z,22.00
2017-08-15T07:07:06.425Z,22.10
2017-08-15T07:09:33.969Z,22.20
2017-08-15T07:12:01.490Z,22.30
2017-08-15T07:14:29.045Z,22.40
2017-08-15T07:16:56.572Z,22.50
2017-08-15T07:19:24.579Z,22.60
2017-08-15T07:21:52.089Z,22.70
2017-08-15T07:24:20.411Z,22.90
2017-08-15T07:26:47.973Z,22.90
2017-08-15T07:29:15.503Z,23.00
2017-08-15T07:31:43.375Z,23.10
2017-08-15T07:34:10.912Z,23.20
2017-08-15T07:36:38.438Z,23.30
2017-08-15T07:39:06.001Z,23.40
2017-08-15T07:41:33.509Z,23.40
2017-08-15T07:44:01.399Z,23.50
2017-08-15T07:46:28.941Z,23.60
2017-08-15T07:48:56.456Z,23.70
2017-08-15T07:51:24.000Z,23.70
2017-08-15T07:53:51.511Z,23.80
2017-08-15T07:56:19.526Z,23.90
2017-08-15T07:58:47.081Z,24.00
2017-08-15T08:01:14.618Z,24.10
2017-08-15T08:03:42.187Z,24.20
2017-08-15T08:06:09.705Z,24.30
2017-08-15T08:08:37.621Z,24.40
2017-08-15T08:11:05.165Z,24.60
2017-08-15T08:13:32.697Z,24.70
2017-08-15T08:16:02.027Z,24.90
2017-08-15T08:18:29.908Z,24.90
2017-08-15T08:20:57.790Z,25.00
2017-08-15T08:23:25.299Z,25.20
2017-08-15T08:25:52.926Z,25.30
2017-08-15T08:28:20.669Z,25.30
2017-08-15T08:30:48.307Z,25.40
2017-08-15T08:33:16.118Z,25.50
2017-08-15T08:35:43.651Z,25.60
2017-08-15T08:38:11.187Z,25.70
2017-08-15T08:40:38.859Z,25.80
2017-08-15T08:43:06.390Z,25.90
2017-08-15T08:45:55.505Z,26.00
2017-08-15T08:48:23.051Z,26.20
2017-08-15T08:50:54.666Z,26.30
2017-08-15T08:53:22.180Z,26.40
2017-08-15T08:55:49.837Z,26.50
2017-08-15T08:58:17.376Z,26.60
2017-08-15T09:00:44.982Z,26.70
2017-08-15T09:03:12.829Z,26.80
2017-08-15T09:05:42.297Z,26.90
2017-08-15T09:08:10.601Z,27.10
2017-08-15T09:10:38.174Z,27.00
2017-08-15T09:13:05.697Z,27.20
2017-08-15T09:15:33.857Z,27.30
2017-08-15T09:18:02.185Z,27.50
2017-08-15T09:20:29.727Z,27.40
2017-08-15T09:22:57.280Z,27.60
2017-08-15T09:25:24.814Z,27.70
2017-08-15T09:27:52.744Z,27.80
2017-08-15T09:30:20.260Z,28.00
2017-08-15T09:32:48.557Z,28.20
2017-08-15T09:35:16.140Z,28.20
2017-08-15T09:37:43.681Z,28.40
2017-08-15T09:40:11.587Z,28.50
2017-08-15T09:42:39.128Z,28.60
2017-08-15T09:45:14.357Z,28.80
2017-08-15T09:47:41.871Z,28.90
2017-08-15T09:50:10.032Z,29.00
2017-08-15T09:52:37.625Z,29.20
2017-08-15T09:55:05.491Z,29.20
2017-08-15T09:57:34.234Z,29.40
2017-08-15T10:00:01.798Z,29.40
2017-08-15T10:02:29.333Z,29.40
2017-08-15T10:04:56.876Z,29.50
2017-08-15T10:07:24.403Z,29.50
2017-08-15T10:09:52.257Z,29.50
2017-08-15T10:12:19.805Z,29.40
2017-08-15T10:14:47.340Z,29.50
2017-08-15T10:17:15.278Z,29.50
2017-08-15T10:19:43.674Z,29.60
2017-08-15T10:22:11.660Z,29.50
2017-08-15T10:24:39.171Z,29.60
2017-08-15T10:27:06.715Z,29.70
2017-08-15T10:29:34.256Z,29.90
2017-08-15T10:32:01.909Z,30.00
2017-08-15T10:34:30.494Z,30.00
2017-08-15T10:36:59.020Z,30.10
2017-08-15T10:39:26.538Z,30.10
2017-08-15T10:41:54.110Z,30.10
2017-08-15T10:44:27.239Z,30.10
2017-08-15T10:46:56.866Z,30.00
2017-08-15T10:49:24.410Z,30.00
2017-08-15T10:51:59.018Z,30.00
2017-08-15T10:54:26.539Z,30.00
2017-08-15T10:56:54.069Z,30.00
2017-08-15T10:59:22.389Z,30.10
2017-08-15T11:02:07.834Z,30.10
2017-08-15T11:04:35.759Z,30.10
2017-08-15T11:07:03.271Z,30.20
2017-08-15T11:09:30.806Z,30.10
2017-08-15T11:11:58.517Z,30.20
2017-08-15T11:14:26.250Z,30.20
2017-08-15T11:16:54.314Z,30.20
2017-08-15T11:19:21.875Z,30.20
2017-08-15T11:21:49.533Z,30.10
2017-08-15T11:24:17.110Z,30.10
2017-08-15T11:26:44.682Z,30.10
2017-08-15T11:29:12.564Z,30.00
2017-08-15T11:31:40.127Z,30.20
2017-08-15T11:34:07.658Z,30.30
2017-08-15T11:36:35.482Z,30.60
2017-08-15T11:39:03.181Z,31.00
2017-08-15T11:41:31.265Z,31.60
2017-08-15T11:43:58.838Z,32.40
2017-08-15T11:46:26.353Z,33.30
2017-08-15T11:48:53.905Z,34.00
2017-08-15T11:51:21.445Z,34.60
2017-08-15T11:53:49.412Z,35.10
2017-08-15T11:56:16.948Z,35.60
2017-08-15T11:58:44.470Z,36.10
2017-08-15T12:01:12.031Z,36.70
2017-08-15T12:03:40.344Z,37.90
2017-08-15T12:06:08.339Z,37.80
2017-08-15T12:08:35.860Z,38.50
2017-08-15T12:11:03.392Z,39.20
2017-08-15T12:13:30.972Z,40.00
2017-08-15T12:15:58.509Z,40.60
2017-08-15T12:18:26.357Z,41.20
2017-08-15T12:20:53.898Z,41.70
2017-08-15T12:23:21.685Z,42.20
2017-08-15T12:25:49.293Z,42.70
2017-08-15T12:28:16.813Z,43.40
2017-08-15T12:30:44.739Z,43.70
2017-08-15T12:33:12.281Z,43.90
2017-08-15T12:35:39.786Z,43.90
2017-08-15T12:38:07.344Z,44.00
2017-08-15T12:40:34.867Z,44.00
2017-08-15T12:43:02.775Z,43.80
2017-08-15T12:45:30.289Z,43.50
2017-08-15T12:47:57.831Z,43.20
2017-08-15T12:50:25.432Z,42.90
2017-08-15T12:52:52.966Z,42.90
2017-08-15T12:55:22.546Z,43.30
2017-08-15T12:57:50.090Z,43.30
2017-08-15T13:00:17.641Z,43.60
2017-08-15T13:02:45.624Z,43.80
2017-08-15T13:05:13.171Z,44.10
2017-08-15T13:07:40.722Z,44.30
2017-08-15T13:10:10.274Z,44.40
2017-08-15T13:12:43.556Z,44.50
2017-08-15T13:15:11.436Z,44.50
2017-08-15T13:17:42.064Z,44.30
2017-08-15T13:20:16.311Z,44.30
2017-08-15T13:22:44.596Z,44.40
2017-08-15T13:25:12.492Z,44.30
2017-08-15T13:27:40.053Z,44.50
2017-08-15T13:30:07.567Z,44.40
2017-08-15T13:32:35.889Z,44.50
2017-08-15T13:35:03.592Z,44.50
2017-08-15T13:37:31.433Z,44.50
2017-08-15T13:39:58.972Z,44.40
2017-08-15T13:42:26.517Z,44.20
2017-08-15T13:44:58.794Z,44.30
2017-08-15T13:47:27.248Z,44.60
2017-08-15T13:50:00.733Z,44.70
2017-08-15T13:52:29.089Z,44.80
2017-08-15T13:54:56.604Z,44.80
2017-08-15T13:57:24.157Z,44.60
2017-08-15T13:59:51.734Z,44.40
2017-08-15T14:02:19.573Z,44.30
2017-08-15T14:04:47.090Z,44.40
2017-08-15T14:07:14.616Z,44.60
2017-08-15T14:09:42.175Z,44.60
2017-08-15T14:12:09.709Z,44.70
2017-08-15T14:14:37.532Z,44.60
2017-08-15T14:17:05.068Z,44.60
2017-08-15T14:19:32.594Z,44.80
2017-08-15T14:22:00.154Z,45.00
2017-08-15T14:24:27.709Z,45.10
2017-08-15T14:26:55.559Z,45.10
2017-08-15T14:29:23.073Z,45.20
2017-08-15T14:31:50.595Z,45.30
2017-08-15T14:34:18.198Z,45.30
2017-08-15T14:36:45.754Z,45.20
2017-08-15T14:39:13.653Z,45.10
2017-08-15T14:41:41.198Z,44.80
2017-08-15T14:44:08.732Z,44.50
2017-08-15T14:46:36.357Z,44.40
2017-08-15T14:49:03.883Z,44.20
2017-08-15T14:51:31.730Z,44.00
2017-08-15T14:53:59.251Z,43.70
2017-08-15T14:56:26.776Z,43.40
2017-08-15T14:58:54.350Z,43.10
2017-08-15T15:01:21.885Z,43.10
2017-08-15T15:03:49.840Z,43.00
2017-08-15T15:06:18.125Z,43.10
2017-08-15T15:08:45.662Z,43.10
2017-08-15T15:11:14.059Z,43.20
2017-08-15T15:13:42.585Z,43.20
2017-08-15T15:16:10.571Z,43.20
2017-08-15T15:18:38.100Z,43.10
2017-08-15T15:21:05.638Z,42.80
2017-08-15T15:23:33.202Z,42.50
2017-08-15T15:26:00.766Z,42.10
2017-08-15T15:28:28.919Z,41.60
2017-08-15T15:30:56.632Z,41.40
2017-08-15T15:33:24.604Z,41.40
2017-08-15T15:35:53.269Z,41.40
2017-08-15T15:38:33.981Z,41.30
2017-08-15T15:41:06.061Z,41.30
2017-08-15T15:43:33.637Z,41.10
2017-08-15T15:46:01.160Z,41.00
2017-08-15T15:48:29.714Z,40.90
2017-08-15T15:50:57.266Z,40.80
2017-08-15T15:53:25.247Z,40.70
2017-08-15T15:55:52.782Z,40.70
2017-08-15T15:58:20.337Z,40.50
2017-08-15T16:00:47.894Z,40.40
2017-08-15T16:03:15.418Z,40.10
2017-08-15T16:05:43.286Z,39.70
2017-08-15T16:08:10.870Z,39.40
2017-08-15T16:10:38.403Z,39.10
2017-08-15T16:13:06.023Z,38.80
2017-08-15T16:15:33.584Z,38.70
2017-08-15T16:18:01.467Z,38.50
2017-08-15T16:20:29.070Z,38.40
2017-08-15T16:22:56.704Z,38.30
2017-08-15T16:25:24.268Z,38.30
2017-08-15T16:27:51.784Z,38.20
2017-08-15T16:30:19.675Z,38.00
2017-08-15T16:32:47.296Z,37.80
2017-08-15T16:35:14.858Z,37.70
2017-08-15T16:37:42.403Z,37.70
2017-08-15T16:40:10.003Z,37.60
2017-08-15T16:42:37.912Z,37.40
2017-08-15T16:45:05.431Z,37.20
2017-08-15T16:47:32.957Z,37.00
2017-08-15T16:50:01.492Z,36.90
2017-08-15T16:52:29.088Z,36.60
2017-08-15T16:54:56.937Z,36.40
2017-08-15T16:57:24.470Z,36.20
2017-08-15T16:59:52.009Z,36.00
2017-08-15T17:02:45.411Z,35.50
2017-08-15T17:05:12.927Z,35.40
2017-08-15T17:07:40.744Z,35.20
2017-08-15T17:10:08.300Z,35.00
2017-08-15T17:12:35.904Z,34.80
2017-08-15T17:15:03.480Z,34.50
2017-08-15T17:17:31.833Z,34.00
2017-08-15T17:19:59.711Z,33.90
2017-08-15T17:22:27.238Z,33.70
2017-08-15T17:24:54.793Z,33.40
2017-08-15T17:27:22.361Z,33.10
2017-08-15T17:29:49.912Z,32.80
2017-08-15T17:32:17.804Z,32.60
2017-08-15T17:34:45.340Z,32.40
2017-08-15T17:37:12.865Z,32.10
2017-08-15T17:39:41.215Z,31.70
2017-08-15T17:42:08.760Z,31.70
2017-08-15T17:44:36.609Z,31.50
2017-08-15T17:47:04.143Z,31.40
2017-08-15T17:49:31.663Z,31.20
2017-08-15T17:51:59.241Z,31.10
2017-08-15T17:54:26.839Z,30.90
2017-08-15T17:56:55.657Z,30.80
2017-08-15T17:59:23.239Z,30.60
2017-08-15T18:01:51.401Z,30.50
2017-08-15T18:04:20.769Z,30.30
2017-08-15T18:06:48.466Z,30.20
2017-08-15T18:09:17.374Z,30.10
2017-08-15T18:11:46.200Z,29.90
2017-08-15T18:14:13.789Z,29.90
2017-08-15T18:16:41.361Z,29.80
2017-08-15T18:19:08.892Z,29.70
2017-08-15T18:21:36.838Z,29.60
2017-08-15T18:24:04.397Z,29.40
2017-08-15T18:26:32.953Z,29.20
2017-08-15T18:29:00.930Z,29.20
2017-08-15T18:31:28.862Z,29.10
2017-08-15T18:33:56.902Z,29.00
2017-08-15T18:36:24.468Z,28.90
2017-08-15T18:38:52.018Z,28.70
2017-08-15T18:41:20.374Z,28.50
2017-08-15T18:43:48.715Z,28.50
2017-08-15T18:46:16.657Z,28.40
2017-08-15T18:48:44.224Z,28.40
2017-08-15T18:51:11.752Z,28.30
2017-08-15T18:53:40.151Z,28.20
2017-08-15T18:56:07.735Z,28.10
2017-08-15T18:58:35.592Z,28.10
2017-08-15T19:01:03.152Z,28.00
2017-08-15T19:03:30.695Z,28.00
2017-08-15T19:05:58.353Z,27.90
2017-08-15T19:08:29.835Z,27.80
2017-08-15T19:10:57.782Z,27.80
2017-08-15T19:13:26.094Z,27.60
2017-08-15T19:15:53.861Z,27.50
2017-08-15T19:18:21.455Z,27.50
2017-08-15T19:20:49.015Z,27.40
2017-08-15T19:23:16.893Z,27.30
2017-08-15T19:25:44.442Z,27.30
2017-08-15T19:28:12.066Z,27.20
2017-08-15T19:30:39.674Z,27.20
2017-08-15T19:33:08.085Z,27.10
2017-08-15T19:35:36.038Z,27.00
2017-08-15T19:38:04.388Z,27.00
2017-08-15T19:40:31.983Z,26.90
2017-08-15T19:42:59.610Z,26.90
2017-08-15T19:45:27.195Z,26.90
2017-08-15T19:47:55.048Z,26.80
2017-08-15T19:50:22.582Z,26.80
2017-08-15T19:52:50.146Z,26.70
2017-08-15T19:55:17.719Z,26.60
2017-08-15T19:57:45.303Z,26.60
2017-08-15T20:00:13.163Z,26.50
2017-08-15T20:02:41.319Z,26.50
2017-08-15T20:05:08.838Z,26.40
2017-08-15T20:07:36.418Z,26.40
2017-08-15T20:10:03.937Z,26.40
2017-08-15T20:12:31.795Z,26.30
2017-08-15T20:14:59.333Z,26.30
2017-08-15T20:17:26.854Z,26.30
2017-08-15T20:19:54.422Z,26.20
2017-08-15T20:22:21.997Z,26.20
2017-08-15T20:24:49.888Z,26.10
2017-08-15T20:27:17.453Z,26.10
2017-08-15T20:29:44.975Z,26.00
2017-08-15T20:32:12.545Z,26.00
2017-08-15T20:34:40.082Z,25.90
2017-08-15T20:37:07.886Z,25.90
2017-08-15T20:39:35.406Z,25.80
2017-08-15T20:42:02.941Z,25.80
2017-08-15T20:44:30.532Z,25.90
2017-08-15T20:46:58.060Z,25.90
2017-08-15T20:49:25.872Z,25.80
2017-08-15T20:51:54.331Z,25.80
2017-08-15T20:54:21.848Z,25.80
2017-08-15T20:56:49.418Z,25.80
2017-08-15T20:59:16.990Z,25.70
2017-08-15T21:01:44.834Z,25.70
2017-08-15T21:04:12.425Z,25.80
2017-08-15T21:06:39.958Z,25.70
2017-08-15T21:09:07.545Z,25.70
2017-08-15T21:11:35.069Z,25.70
2017-08-15T21:14:02.949Z,25.70
2017-08-15T21:16:30.464Z,25.70
2017-08-15T21:18:58.008Z,25.70
2017-08-15T21:21:25.639Z,25.70
2017-08-15T21:23:53.173Z,25.70
2017-08-15T21:26:21.041Z,25.60
2017-08-15T21:28:48.615Z,25.60
2017-08-15T21:31:16.170Z,25.50
2017-08-15T21:33:43.729Z,25.50
2017-08-15T21:36:11.270Z,25.50
2017-08-15T21:38:39.164Z,25.40
2017-08-15T21:41:06.719Z,25.30
2017-08-15T21:43:34.251Z,25.30
2017-08-15T21:46:01.788Z,25.30
2017-08-15T21:48:29.328Z,25.20
2017-08-15T21:50:57.171Z,25.20
2017-08-15T21:53:24.729Z,25.10
2017-08-15T21:55:52.325Z,25.10
2017-08-15T21:58:19.882Z,25.00
2017-08-15T22:00:53.791Z,25.00
2017-08-15T22:03:21.596Z,25.00
2017-08-15T22:05:49.135Z,25.00
2017-08-15T22:08:16.666Z,25.00
2017-08-15T22:10:44.201Z,24.90
2017-08-15T22:13:11.724Z,24.90
2017-08-15T22:15:39.649Z,24.80
2017-08-15T22:18:07.196Z,24.70
2017-08-15T22:20:34.732Z,24.70
2017-08-15T22:23:02.295Z,24.60
2017-08-15T22:25:29.817Z,24.50
2017-08-15T22:27:57.630Z,24.40
2017-08-15T22:30:25.125Z,24.30
2017-08-15T22:32:52.656Z,24.30
2017-08-15T22:35:20.215Z,24.20
2017-08-15T22:37:47.750Z,24.10
2017-08-15T22:40:15.629Z,24.10
2017-08-15T22:42:43.147Z,24.00
2017-08-15T22:45:11.467Z,23.90
2017-08-15T22:47:39.052Z,23.80
2017-08-15T22:50:06.617Z,23.80
2017-08-15T22:52:34.443Z,23.80
2017-08-15T22:55:01.976Z,23.70
2017-08-15T22:57:29.533Z,23.60
2017-08-15T22:59:57.862Z,23.50
2017-08-15T23:02:25.409Z,23.50
2017-08-15T23:04:53.273Z,23.50
2017-08-15T23:07:20.805Z,23.50
2017-08-15T23:09:49.097Z,23.60
2017-08-15T23:12:16.661Z,23.50
2017-08-15T23:14:44.196Z,23.50
2017-08-15T23:17:12.792Z,23.50
2017-08-15T23:19:41.089Z,23.50
2017-08-15T23:22:08.604Z,23.40
2017-08-15T23:24:36.175Z,23.40
2017-08-15T23:27:03.696Z,23.40
2017-08-15T23:29:31.538Z,23.30
2017-08-15T23:31:59.062Z,23.30
2017-08-15T23:34:26.612Z,23.30
2017-08-15T23:36:54.176Z,23.30
2017-08-15T23:39:21.710Z,23.30
2017-08-15T23:41:49.555Z,23.20
2017-08-15T23:44:17.092Z,23.20
2017-08-15T23:46:44.632Z,23.20
2017-08-15T23:49:12.183Z,23.20
2017-08-15T23:51:39.702Z,23.10
2017-08-15T23:54:07.589Z,23.20
2017-08-15T23:56:35.118Z,23.10
2017-08-15T23:59:02.652Z,23.20
